sensor_id;sensor_type;location;lat;lon;timestamp;pressure;altitude;pressure_sealevel;temperature;humidity
37852;BME280;23691;52.486;4.650;2023-06-22T00:01:53;102013.56;;;20.13;67.01
37852;BME280;23691;52.486;4.650;2023-06-22T00:04:18;102015.69;;;20.11;67.32
37852;BME280;23691;52.486;4.650;2023-06-22T00:06:44;102020.66;;;20.07;66.92
37852;BME280;23691;52.486;4.650;2023-06-22T00:09:09;102020.66;;;20.07;66.78
37852;BME280;23691;52.486;4.650;2023-06-22T00:11:36;102025.66;;;20.04;66.67
37852;BME280;23691;52.486;4.650;2023-06-22T00:14:05;102028.97;;;19.99;66.75
37852;BME280;23691;52.486;4.650;2023-06-22T00:16:32;102022.06;;;19.97;66.66
37852;BME280;23691;52.486;4.650;2023-06-22T00:18:58;102015.13;;;19.94;66.84
37852;BME280;23691;52.486;4.650;2023-06-22T00:21:27;102024.53;;;19.91;66.87
37852;BME280;23691;52.486;4.650;2023-06-22T00:23:52;102022.19;;;19.88;67.27
37852;BME280;23691;52.486;4.650;2023-06-22T00:26:18;102025.13;;;19.87;67.15
37852;BME280;23691;52.486;4.650;2023-06-22T00:28:44;102021.34;;;19.88;67.56
37852;BME280;23691;52.486;4.650;2023-06-22T00:31:09;102025.94;;;19.87;67.54
37852;BME280;23691;52.486;4.650;2023-06-22T00:33:35;102018.63;;;19.88;67.87
37852;BME280;23691;52.486;4.650;2023-06-22T00:36:00;102027.63;;;19.88;68.09
37852;BME280;23691;52.486;4.650;2023-06-22T00:38:28;102030.53;;;19.87;68.23
37852;BME280;23691;52.486;4.650;2023-06-22T00:40:55;102028.00;;;19.85;68.43
37852;BME280;23691;52.486;4.650;2023-06-22T00:43:21;102027.38;;;19.83;68.06
37852;BME280;23691;52.486;4.650;2023-06-22T00:45:49;102031.13;;;19.82;68.89
37852;BME280;23691;52.486;4.650;2023-06-22T00:48:14;102028.81;;;19.79;68.15
37852;BME280;23691;52.486;4.650;2023-06-22T00:50:40;102027.13;;;19.78;68.57
37852;BME280;23691;52.486;4.650;2023-06-22T00:53:07;102026.28;;;19.78;69.66
37852;BME280;23691;52.486;4.650;2023-06-22T00:55:35;102022.09;;;19.75;69.17
37852;BME280;23691;52.486;4.650;2023-06-22T00:58:03;102027.72;;;19.73;69.28
37852;BME280;23691;52.486;4.650;2023-06-22T01:00:36;102019.78;;;19.72;69.16
37852;BME280;23691;52.486;4.650;2023-06-22T01:03:02;102023.91;;;19.68;69.47
37852;BME280;23691;52.486;4.650;2023-06-22T01:05:28;102013.19;;;19.66;68.86
37852;BME280;23691;52.486;4.650;2023-06-22T01:11:07;102016.13;;;19.65;68.95
37852;BME280;23691;52.486;4.650;2023-06-22T01:16:23;102012.34;;;19.59;68.93
37852;BME280;23691;52.486;4.650;2023-06-22T01:18:52;102001.84;;;19.56;69.22
37852;BME280;23691;52.486;4.650;2023-06-22T01:21:21;101999.34;;;19.55;69.13
37852;BME280;23691;52.486;4.650;2023-06-22T01:24:02;102005.63;;;19.55;68.81
37852;BME280;23691;52.486;4.650;2023-06-22T01:26:54;102004.78;;;19.55;68.56
37852;BME280;23691;52.486;4.650;2023-06-22T01:29:24;101999.72;;;19.51;69.29
37852;BME280;23691;52.486;4.650;2023-06-22T01:31:52;102001.81;;;19.49;69.04
37852;BME280;23691;52.486;4.650;2023-06-22T01:34:19;101996.56;;;19.48;69.09
37852;BME280;23691;52.486;4.650;2023-06-22T01:36:46;102007.44;;;19.48;69.23
37852;BME280;23691;52.486;4.650;2023-06-22T01:39:13;102010.31;;;19.46;68.64
37852;BME280;23691;52.486;4.650;2023-06-22T01:41:40;102015.56;;;19.48;69.17
37852;BME280;23691;52.486;4.650;2023-06-22T01:44:08;102012.19;;;19.46;69.24
37852;BME280;23691;52.486;4.650;2023-06-22T01:46:37;102012.03;;;19.47;69.00
37852;BME280;23691;52.486;4.650;2023-06-22T01:49:04;102010.53;;;19.45;69.38
37852;BME280;23691;52.486;4.650;2023-06-22T01:51:30;102006.34;;;19.42;69.42
37852;BME280;23691;52.486;4.650;2023-06-22T01:53:58;102008.41;;;19.40;69.53
37852;BME280;23691;52.486;4.650;2023-06-22T01:56:25;102011.13;;;19.40;68.73
37852;BME280;23691;52.486;4.650;2023-06-22T01:59:03;102009.41;;;19.39;69.23
37852;BME280;23691;52.486;4.650;2023-06-22T02:01:38;102014.00;;;19.39;69.10
37852;BME280;23691;52.486;4.650;2023-06-22T02:04:13;102010.06;;;19.41;69.10
37852;BME280;23691;52.486;4.650;2023-06-22T02:06:42;102003.63;;;19.42;68.58
37852;BME280;23691;52.486;4.650;2023-06-22T02:09:09;102001.75;;;19.43;69.05
37852;BME280;23691;52.486;4.650;2023-06-22T02:11:40;101999.69;;;19.45;69.38
37852;BME280;23691;52.486;4.650;2023-06-22T02:14:07;102004.13;;;19.31;69.13
37852;BME280;23691;52.486;4.650;2023-06-22T02:16:33;101998.88;;;19.29;68.94
37852;BME280;23691;52.486;4.650;2023-06-22T02:19:04;101992.38;;;19.24;69.01
37852;BME280;23691;52.486;4.650;2023-06-22T02:21:30;102005.28;;;19.22;69.71
37852;BME280;23691;52.486;4.650;2023-06-22T02:23:56;101989.88;;;19.22;69.88
37852;BME280;23691;52.486;4.650;2023-06-22T02:26:23;101987.53;;;19.19;69.92
37852;BME280;23691;52.486;4.650;2023-06-22T02:28:50;101995.88;;;19.18;69.39
37852;BME280;23691;52.486;4.650;2023-06-22T02:31:16;101992.53;;;19.16;69.64
37852;BME280;23691;52.486;4.650;2023-06-22T02:33:41;101992.69;;;19.14;69.27
37852;BME280;23691;52.486;4.650;2023-06-22T02:36:07;101991.22;;;19.12;69.57
37852;BME280;23691;52.486;4.650;2023-06-22T02:38:35;101997.03;;;19.08;69.66
37852;BME280;23691;52.486;4.650;2023-06-22T02:41:02;101999.09;;;19.06;69.82
37852;BME280;23691;52.486;4.650;2023-06-22T02:43:27;101999.47;;;19.03;69.91
37852;BME280;23691;52.486;4.650;2023-06-22T02:45:53;102003.41;;;19.01;69.09
37852;BME280;23691;52.486;4.650;2023-06-22T02:48:19;102001.94;;;18.98;69.64
37852;BME280;23691;52.486;4.650;2023-06-22T02:50:44;102012.13;;;18.96;69.71
37852;BME280;23691;52.486;4.650;2023-06-22T02:53:10;101999.78;;;18.94;69.44
37852;BME280;23691;52.486;4.650;2023-06-22T02:55:35;101996.25;;;18.93;68.97
37852;BME280;23691;52.486;4.650;2023-06-22T02:58:01;101994.75;;;18.91;69.18
37852;BME280;23691;52.486;4.650;2023-06-22T03:00:30;101991.56;;;18.87;69.94
37852;BME280;23691;52.486;4.650;2023-06-22T03:02:57;101998.03;;;18.86;69.55
37852;BME280;23691;52.486;4.650;2023-06-22T03:05:23;101984.66;;;18.84;69.93
37852;BME280;23691;52.486;4.650;2023-06-22T03:07:49;101983.00;;;18.83;70.04
37852;BME280;23691;52.486;4.650;2023-06-22T03:10:16;101984.00;;;18.82;70.32
37852;BME280;23691;52.486;4.650;2023-06-22T03:12:42;101986.09;;;18.80;70.04
37852;BME280;23691;52.486;4.650;2023-06-22T03:15:10;101982.53;;;18.80;70.31
37852;BME280;23691;52.486;4.650;2023-06-22T03:17:37;101983.56;;;18.79;70.07
37852;BME280;23691;52.486;4.650;2023-06-22T03:20:05;101984.41;;;18.79;70.03
37852;BME280;23691;52.486;4.650;2023-06-22T03:22:40;101981.03;;;18.77;69.77
37852;BME280;23691;52.486;4.650;2023-06-22T03:25:09;101974.78;;;18.77;70.17
37852;BME280;23691;52.486;4.650;2023-06-22T03:27:42;101972.91;;;18.77;69.70
37852;BME280;23691;52.486;4.650;2023-06-22T03:30:10;101976.44;;;18.78;69.67
37852;BME280;23691;52.486;4.650;2023-06-22T03:32:36;101979.16;;;18.78;69.49
37852;BME280;23691;52.486;4.650;2023-06-22T03:35:02;101984.78;;;18.76;69.02
37852;BME280;23691;52.486;4.650;2023-06-22T03:37:28;101992.25;;;18.74;69.53
37852;BME280;23691;52.486;4.650;2023-06-22T03:39:54;101992.25;;;18.74;69.13
37852;BME280;23691;52.486;4.650;2023-06-22T03:42:20;101987.88;;;18.73;69.06
37852;BME280;23691;52.486;4.650;2023-06-22T03:44:46;101977.84;;;18.74;68.92
37852;BME280;23691;52.486;4.650;2023-06-22T03:47:12;101974.31;;;18.73;68.93
37852;BME280;23691;52.486;4.650;2023-06-22T03:49:37;101969.50;;;18.75;69.20
37852;BME280;23691;52.486;4.650;2023-06-22T03:52:03;101962.06;;;18.77;69.30
37852;BME280;23691;52.486;4.650;2023-06-22T03:54:29;101958.34;;;18.78;69.33
37852;BME280;23691;52.486;4.650;2023-06-22T03:56:58;101955.25;;;18.81;69.30
37852;BME280;23691;52.486;4.650;2023-06-22T03:59:24;101961.09;;;18.85;69.90
37852;BME280;23691;52.486;4.650;2023-06-22T04:01:49;101949.91;;;18.88;69.37
37852;BME280;23691;52.486;4.650;2023-06-22T04:04:16;101955.75;;;18.92;69.77
37852;BME280;23691;52.486;4.650;2023-06-22T04:06:42;101960.59;;;18.96;70.09
37852;BME280;23691;52.486;4.650;2023-06-22T04:09:07;101963.13;;;18.98;69.86
37852;BME280;23691;52.486;4.650;2023-06-22T04:11:33;101968.34;;;18.99;69.76
37852;BME280;23691;52.486;4.650;2023-06-22T04:13:58;101963.41;;;19.03;70.39
37852;BME280;23691;52.486;4.650;2023-06-22T04:16:23;101966.72;;;19.05;69.58
37852;BME280;23691;52.486;4.650;2023-06-22T04:18:49;101963.66;;;19.08;70.02
37852;BME280;23691;52.486;4.650;2023-06-22T04:21:14;101957.66;;;19.13;70.70
37852;BME280;23691;52.486;4.650;2023-06-22T04:23:40;101953.50;;;19.17;71.08
37852;BME280;23691;52.486;4.650;2023-06-22T04:26:05;101946.66;;;19.21;71.38
37852;BME280;23691;52.486;4.650;2023-06-22T04:28:31;101954.00;;;19.27;71.83
37852;BME280;23691;52.486;4.650;2023-06-22T04:31:05;101960.91;;;19.29;71.67
37852;BME280;23691;52.486;4.650;2023-06-22T04:33:31;101959.97;;;19.37;71.51
37852;BME280;23691;52.486;4.650;2023-06-22T04:35:58;101964.59;;;19.43;70.97
37852;BME280;23691;52.486;4.650;2023-06-22T04:38:26;101960.88;;;19.51;71.32
37852;BME280;23691;52.486;4.650;2023-06-22T04:40:51;101958.22;;;19.58;71.75
37852;BME280;23691;52.486;4.650;2023-06-22T04:43:19;101958.47;;;19.63;71.19
37852;BME280;23691;52.486;4.650;2023-06-22T04:45:45;101956.88;;;19.68;71.01
37852;BME280;23691;52.486;4.650;2023-06-22T04:48:11;101963.41;;;19.74;70.86
37852;BME280;23691;52.486;4.650;2023-06-22T04:50:44;101959.06;;;19.80;71.47
37852;BME280;23691;52.486;4.650;2023-06-22T04:53:09;101956.75;;;19.83;71.70
37852;BME280;23691;52.486;4.650;2023-06-22T04:55:40;101958.47;;;19.91;71.82
37852;BME280;23691;52.486;4.650;2023-06-22T04:58:07;101962.50;;;19.95;71.57
37852;BME280;23691;52.486;4.650;2023-06-22T05:00:33;101957.75;;;20.04;71.54
37852;BME280;23691;52.486;4.650;2023-06-22T05:03:01;101963.19;;;20.10;71.49
37852;BME280;23691;52.486;4.650;2023-06-22T05:05:29;101964.06;;;20.17;71.04
37852;BME280;23691;52.486;4.650;2023-06-22T05:07:56;101969.56;;;20.24;71.34
37852;BME280;23691;52.486;4.650;2023-06-22T05:10:26;101965.22;;;20.36;71.33
37852;BME280;23691;52.486;4.650;2023-06-22T05:12:51;101957.47;;;20.40;71.19
37852;BME280;23691;52.486;4.650;2023-06-22T05:15:46;101952.38;;;20.58;71.35
37852;BME280;23691;52.486;4.650;2023-06-22T05:18:12;101948.84;;;20.71;70.96
37852;BME280;23691;52.486;4.650;2023-06-22T05:20:38;101954.94;;;20.80;70.98
37852;BME280;23691;52.486;4.650;2023-06-22T05:23:03;101957.50;;;20.95;70.59
37852;BME280;23691;52.486;4.650;2023-06-22T05:25:29;101948.28;;;21.09;70.32
37852;BME280;23691;52.486;4.650;2023-06-22T05:27:55;101950.19;;;21.29;70.21
37852;BME280;23691;52.486;4.650;2023-06-22T05:30:21;101942.03;;;21.35;70.40
37852;BME280;23691;52.486;4.650;2023-06-22T05:32:46;101943.31;;;21.39;70.55
37852;BME280;23691;52.486;4.650;2023-06-22T05:35:12;101936.19;;;21.45;70.15
37852;BME280;23691;52.486;4.650;2023-06-22T05:37:37;101941.41;;;21.53;70.57
37852;BME280;23691;52.486;4.650;2023-06-22T05:40:03;101956.94;;;21.59;70.12
37852;BME280;23691;52.486;4.650;2023-06-22T05:42:29;101957.97;;;21.65;70.25
37852;BME280;23691;52.486;4.650;2023-06-22T05:44:55;101969.06;;;21.70;70.15
37852;BME280;23691;52.486;4.650;2023-06-22T05:47:21;101976.59;;;21.75;70.48
37852;BME280;23691;52.486;4.650;2023-06-22T05:49:48;101979.09;;;21.83;70.75
37852;BME280;23691;52.486;4.650;2023-06-22T05:52:15;101965.25;;;21.91;70.90
37852;BME280;23691;52.486;4.650;2023-06-22T05:54:40;101956.22;;;21.97;70.72
37852;BME280;23691;52.486;4.650;2023-06-22T05:57:07;101961.25;;;22.00;71.08
37852;BME280;23691;52.486;4.650;2023-06-22T05:59:32;101956.22;;;22.04;71.09
37852;BME280;23691;52.486;4.650;2023-06-22T06:01:57;101950.94;;;22.16;70.54
37852;BME280;23691;52.486;4.650;2023-06-22T06:04:23;101946.72;;;22.33;70.51
37852;BME280;23691;52.486;4.650;2023-06-22T06:06:49;101944.19;;;22.38;70.50
37852;BME280;23691;52.486;4.650;2023-06-22T06:09:14;101961.53;;;22.44;70.46
37852;BME280;23691;52.486;4.650;2023-06-22T06:11:40;101948.34;;;22.47;70.27
37852;BME280;23691;52.486;4.650;2023-06-22T06:14:05;101954.59;;;22.55;69.90
37852;BME280;23691;52.486;4.650;2023-06-22T06:16:32;101958.53;;;22.59;69.96
37852;BME280;23691;52.486;4.650;2023-06-22T06:18:57;101951.81;;;22.61;70.00
37852;BME280;23691;52.486;4.650;2023-06-22T06:21:23;101948.44;;;22.66;70.02
37852;BME280;23691;52.486;4.650;2023-06-22T06:23:49;101945.69;;;22.72;69.47
37852;BME280;23691;52.486;4.650;2023-06-22T06:26:14;101943.34;;;22.76;69.91
37852;BME280;23691;52.486;4.650;2023-06-22T06:28:43;101945.41;;;22.81;69.61
37852;BME280;23691;52.486;4.650;2023-06-22T06:31:09;101947.09;;;22.82;69.55
37852;BME280;23691;52.486;4.650;2023-06-22T06:33:36;101946.81;;;22.90;69.80
37852;BME280;23691;52.486;4.650;2023-06-22T06:36:01;101948.28;;;22.99;69.38
37852;BME280;23691;52.486;4.650;2023-06-22T06:38:29;101948.16;;;23.12;69.49
37852;BME280;23691;52.486;4.650;2023-06-22T06:40:55;101940.94;;;23.25;68.91
37852;BME280;23691;52.486;4.650;2023-06-22T06:43:20;101945.06;;;23.34;69.06
37852;BME280;23691;52.486;4.650;2023-06-22T06:45:46;101946.69;;;23.42;69.35
37852;BME280;23691;52.486;4.650;2023-06-22T06:48:11;101943.91;;;23.48;69.05
37852;BME280;23691;52.486;4.650;2023-06-22T06:50:37;101942.53;;;23.57;68.43
37852;BME280;23691;52.486;4.650;2023-06-22T06:53:02;101942.63;;;23.69;68.11
37852;BME280;23691;52.486;4.650;2023-06-22T06:55:28;101938.84;;;23.70;68.40
37852;BME280;23691;52.486;4.650;2023-06-22T06:57:53;101943.53;;;23.88;67.83
37852;BME280;23691;52.486;4.650;2023-06-22T07:00:19;101939.88;;;23.94;67.84
37852;BME280;23691;52.486;4.650;2023-06-22T07:02:45;101935.94;;;24.09;67.44
37852;BME280;23691;52.486;4.650;2023-06-22T07:05:12;101930.06;;;24.42;66.03
37852;BME280;23691;52.486;4.650;2023-06-22T07:07:38;101932.50;;;24.50;66.48
37852;BME280;23691;52.486;4.650;2023-06-22T07:10:07;101928.69;;;24.51;66.42
37852;BME280;23691;52.486;4.650;2023-06-22T07:12:34;101935.16;;;24.57;66.18
37852;BME280;23691;52.486;4.650;2023-06-22T07:15:17;101936.38;;;24.73;65.31
37852;BME280;23691;52.486;4.650;2023-06-22T07:17:43;101943.91;;;24.77;64.98
37852;BME280;23691;52.486;4.650;2023-06-22T07:20:11;101936.69;;;24.95;64.23
37852;BME280;23691;52.486;4.650;2023-06-22T07:22:43;101936.09;;;24.93;65.16
37852;BME280;23691;52.486;4.650;2023-06-22T07:25:09;101938.03;;;25.04;63.70
37852;BME280;23691;52.486;4.650;2023-06-22T07:27:37;101941.50;;;25.11;63.05
37852;BME280;23691;52.486;4.650;2023-06-22T07:30:04;101934.88;;;25.19;62.22
37852;BME280;23691;52.486;4.650;2023-06-22T07:32:29;101931.78;;;25.27;61.88
37852;BME280;23691;52.486;4.650;2023-06-22T07:34:55;101930.72;;;25.40;60.85
37852;BME280;23691;52.486;4.650;2023-06-22T07:37:21;101932.63;;;25.51;60.79
37852;BME280;23691;52.486;4.650;2023-06-22T07:39:46;101931.81;;;25.62;60.41
37852;BME280;23691;52.486;4.650;2023-06-22T07:42:14;101933.22;;;25.77;59.71
37852;BME280;23691;52.486;4.650;2023-06-22T07:44:44;101929.28;;;25.96;59.01
37852;BME280;23691;52.486;4.650;2023-06-22T07:47:09;101927.50;;;26.02;58.62
37852;BME280;23691;52.486;4.650;2023-06-22T07:49:34;101920.22;;;26.07;58.16
37852;BME280;23691;52.486;4.650;2023-06-22T07:52:00;101910.78;;;26.15;57.59
37852;BME280;23691;52.486;4.650;2023-06-22T07:54:26;101907.41;;;26.25;57.08
37852;BME280;23691;52.486;4.650;2023-06-22T07:56:52;101907.59;;;26.35;57.03
37852;BME280;23691;52.486;4.650;2023-06-22T07:59:18;101906.38;;;26.43;56.26
37852;BME280;23691;52.486;4.650;2023-06-22T08:01:44;101897.31;;;26.42;55.87
37852;BME280;23691;52.486;4.650;2023-06-22T08:04:09;101904.91;;;26.52;56.11
37852;BME280;23691;52.486;4.650;2023-06-22T08:06:35;101902.06;;;26.59;56.05
37852;BME280;23691;52.486;4.650;2023-06-22T08:09:00;101898.66;;;26.68;55.84
37852;BME280;23691;52.486;4.650;2023-06-22T08:11:25;101896.69;;;26.81;55.39
37852;BME280;23691;52.486;4.650;2023-06-22T08:13:52;101899.34;;;26.75;55.04
37852;BME280;23691;52.486;4.650;2023-06-22T08:16:17;101903.66;;;26.71;54.99
37852;BME280;23691;52.486;4.650;2023-06-22T08:18:43;101893.59;;;26.77;54.64
37852;BME280;23691;52.486;4.650;2023-06-22T08:21:08;101894.09;;;26.74;55.27
37852;BME280;23691;52.486;4.650;2023-06-22T08:23:34;101893.19;;;26.85;54.94
37852;BME280;23691;52.486;4.650;2023-06-22T08:26:00;101897.09;;;26.89;55.47
37852;BME280;23691;52.486;4.650;2023-06-22T08:28:26;101891.53;;;27.01;55.30
37852;BME280;23691;52.486;4.650;2023-06-22T08:30:51;101878.19;;;27.10;54.87
37852;BME280;23691;52.486;4.650;2023-06-22T08:33:17;101873.47;;;27.22;54.70
37852;BME280;23691;52.486;4.650;2023-06-22T08:35:43;101873.16;;;27.35;54.33
37852;BME280;23691;52.486;4.650;2023-06-22T08:38:09;101879.81;;;27.39;54.20
37852;BME280;23691;52.486;4.650;2023-06-22T08:40:34;101874.69;;;27.48;53.97
37852;BME280;23691;52.486;4.650;2023-06-22T08:43:00;101869.78;;;27.50;54.12
37852;BME280;23691;52.486;4.650;2023-06-22T08:45:25;101873.13;;;27.52;53.47
37852;BME280;23691;52.486;4.650;2023-06-22T08:47:50;101873.50;;;27.61;52.80
37852;BME280;23691;52.486;4.650;2023-06-22T08:50:16;101869.69;;;27.62;52.57
37852;BME280;23691;52.486;4.650;2023-06-22T08:52:41;101867.66;;;27.74;52.46
37852;BME280;23691;52.486;4.650;2023-06-22T08:55:08;101863.19;;;27.90;51.38
37852;BME280;23691;52.486;4.650;2023-06-22T08:57:34;101869.78;;;27.89;51.02
37852;BME280;23691;52.486;4.650;2023-06-22T08:59:59;101869.56;;;27.96;51.03
37852;BME280;23691;52.486;4.650;2023-06-22T09:02:28;101865.81;;;28.02;51.15
37852;BME280;23691;52.486;4.650;2023-06-22T09:04:58;101860.13;;;28.09;50.95
37852;BME280;23691;52.486;4.650;2023-06-22T09:07:24;101856.91;;;28.17;50.90
37852;BME280;23691;52.486;4.650;2023-06-22T09:09:51;101865.50;;;28.25;50.56
37852;BME280;23691;52.486;4.650;2023-06-22T09:12:18;101861.78;;;28.37;50.83
37852;BME280;23691;52.486;4.650;2023-06-22T09:14:46;101864.66;;;28.47;50.34
37852;BME280;23691;52.486;4.650;2023-06-22T09:17:12;101860.13;;;28.58;49.79
37852;BME280;23691;52.486;4.650;2023-06-22T09:19:38;101857.16;;;28.69;49.50
37852;BME280;23691;52.486;4.650;2023-06-22T09:22:04;101858.34;;;28.79;49.67
37852;BME280;23691;52.486;4.650;2023-06-22T09:24:31;101859.81;;;28.92;48.57
37852;BME280;23691;52.486;4.650;2023-06-22T09:26:56;101868.38;;;28.90;48.65
37852;BME280;23691;52.486;4.650;2023-06-22T09:29:22;101884.69;;;29.02;49.00
37852;BME280;23691;52.486;4.650;2023-06-22T09:31:48;101877.34;;;29.07;48.49
37852;BME280;23691;52.486;4.650;2023-06-22T09:34:13;101861.72;;;29.18;48.25
37852;BME280;23691;52.486;4.650;2023-06-22T09:36:41;101864.25;;;29.25;48.47
37852;BME280;23691;52.486;4.650;2023-06-22T09:39:06;101862.34;;;29.30;48.76
37852;BME280;23691;52.486;4.650;2023-06-22T09:41:32;101861.81;;;29.33;48.82
37852;BME280;23691;52.486;4.650;2023-06-22T09:43:57;101857.97;;;29.35;47.93
37852;BME280;23691;52.486;4.650;2023-06-22T09:46:23;101859.06;;;29.39;47.90
37852;BME280;23691;52.486;4.650;2023-06-22T09:48:50;101857.75;;;29.41;47.61
37852;BME280;23691;52.486;4.650;2023-06-22T09:51:16;101854.44;;;29.44;47.52
37852;BME280;23691;52.486;4.650;2023-06-22T09:53:42;101850.59;;;29.45;47.70
37852;BME280;23691;52.486;4.650;2023-06-22T09:56:07;101847.84;;;29.50;47.21
37852;BME280;23691;52.486;4.650;2023-06-22T09:58:36;101848.47;;;29.63;46.76
37852;BME280;23691;52.486;4.650;2023-06-22T10:01:01;101840.25;;;29.73;46.51
37852;BME280;23691;52.486;4.650;2023-06-22T10:03:27;101836.72;;;29.83;46.28
37852;BME280;23691;52.486;4.650;2023-06-22T10:05:52;101838.13;;;29.90;46.09
37852;BME280;23691;52.486;4.650;2023-06-22T10:08:18;101832.66;;;30.01;45.00
37852;BME280;23691;52.486;4.650;2023-06-22T10:10:43;101833.22;;;30.08;45.25
37852;BME280;23691;52.486;4.650;2023-06-22T10:13:10;101838.19;;;30.11;45.19
37852;BME280;23691;52.486;4.650;2023-06-22T10:15:36;101829.94;;;30.21;45.20
37852;BME280;23691;52.486;4.650;2023-06-22T10:18:02;101828.03;;;30.27;44.87
37852;BME280;23691;52.486;4.650;2023-06-22T10:20:28;101821.97;;;30.25;44.44
37852;BME280;23691;52.486;4.650;2023-06-22T10:22:53;101824.19;;;30.33;44.34
37852;BME280;23691;52.486;4.650;2023-06-22T10:25:19;101817.88;;;30.43;43.90
37852;BME280;23691;52.486;4.650;2023-06-22T10:27:44;101823.09;;;30.54;43.64
37852;BME280;23691;52.486;4.650;2023-06-22T10:30:11;101823.38;;;30.58;43.44
37852;BME280;23691;52.486;4.650;2023-06-22T10:32:41;101828.09;;;30.68;43.55
37852;BME280;23691;52.486;4.650;2023-06-22T10:35:08;101824.75;;;30.76;43.68
37852;BME280;23691;52.486;4.650;2023-06-22T10:37:36;101829.47;;;30.91;43.48
37852;BME280;23691;52.486;4.650;2023-06-22T10:40:01;101828.94;;;31.04;43.03
37852;BME280;23691;52.486;4.650;2023-06-22T10:42:28;101819.78;;;31.14;41.70
37852;BME280;23691;52.486;4.650;2023-06-22T10:44:53;101817.25;;;31.22;41.06
37852;BME280;23691;52.486;4.650;2023-06-22T10:47:19;101819.16;;;31.32;39.82
37852;BME280;23691;52.486;4.650;2023-06-22T10:49:44;101824.16;;;31.40;39.66
37852;BME280;23691;52.486;4.650;2023-06-22T10:52:09;101810.31;;;31.51;39.66
37852;BME280;23691;52.486;4.650;2023-06-22T10:54:36;101813.06;;;31.56;39.00
37852;BME280;23691;52.486;4.650;2023-06-22T10:57:02;101802.50;;;31.58;39.42
37852;BME280;23691;52.486;4.650;2023-06-22T10:59:28;101810.56;;;31.54;39.44
37852;BME280;23691;52.486;4.650;2023-06-22T11:01:58;101822.16;;;31.56;40.61
37852;BME280;23691;52.486;4.650;2023-06-22T11:04:24;101810.53;;;31.59;40.23
37852;BME280;23691;52.486;4.650;2023-06-22T11:06:50;101801.63;;;31.67;40.23
37852;BME280;23691;52.486;4.650;2023-06-22T11:09:16;101814.59;;;31.77;40.96
37852;BME280;23691;52.486;4.650;2023-06-22T11:11:50;101808.81;;;31.74;40.73
37852;BME280;23691;52.486;4.650;2023-06-22T11:14:16;101809.38;;;31.71;41.05
37852;BME280;23691;52.486;4.650;2023-06-22T11:16:42;101807.72;;;31.70;41.12
37852;BME280;23691;52.486;4.650;2023-06-22T11:19:07;101807.75;;;31.64;41.49
37852;BME280;23691;52.486;4.650;2023-06-22T11:21:33;101810.22;;;31.71;41.31
37852;BME280;23691;52.486;4.650;2023-06-22T11:23:59;101807.47;;;31.66;41.17
37852;BME280;23691;52.486;4.650;2023-06-22T11:26:25;101808.03;;;31.68;41.18
37852;BME280;23691;52.486;4.650;2023-06-22T11:28:53;101812.72;;;31.73;40.38
37852;BME280;23691;52.486;4.650;2023-06-22T11:31:19;101812.69;;;31.67;39.99
37852;BME280;23691;52.486;4.650;2023-06-22T11:33:44;101811.34;;;31.65;40.19
37852;BME280;23691;52.486;4.650;2023-06-22T11:36:11;101815.78;;;31.61;39.97
37852;BME280;23691;52.486;4.650;2023-06-22T11:38:37;101811.09;;;31.56;38.62
37852;BME280;23691;52.486;4.650;2023-06-22T11:41:05;101816.66;;;31.51;38.87
37852;BME280;23691;52.486;4.650;2023-06-22T11:43:31;101813.91;;;31.51;38.56
37852;BME280;23691;52.486;4.650;2023-06-22T11:45:56;101813.31;;;31.54;38.95
37852;BME280;23691;52.486;4.650;2023-06-22T11:48:24;101810.50;;;31.64;39.48
37852;BME280;23691;52.486;4.650;2023-06-22T11:50:50;101815.47;;;31.73;38.80
37852;BME280;23691;52.486;4.650;2023-06-22T11:53:15;101806.63;;;31.71;38.13
37852;BME280;23691;52.486;4.650;2023-06-22T11:55:43;101807.72;;;31.70;37.93
37852;BME280;23691;52.486;4.650;2023-06-22T11:58:09;101800.50;;;31.74;38.15
37852;BME280;23691;52.486;4.650;2023-06-22T12:00:34;101788.59;;;31.78;38.64
37852;BME280;23691;52.486;4.650;2023-06-22T12:03:00;101800.75;;;31.77;38.90
37852;BME280;23691;52.486;4.650;2023-06-22T12:05:25;101790.03;;;31.71;39.67
37852;BME280;23691;52.486;4.650;2023-06-22T12:07:53;101796.13;;;31.62;39.64
37852;BME280;23691;52.486;4.650;2023-06-22T12:10:21;101789.81;;;31.57;40.71
37852;BME280;23691;52.486;4.650;2023-06-22T12:12:47;101789.28;;;31.50;40.30
37852;BME280;23691;52.486;4.650;2023-06-22T12:15:12;101794.31;;;31.27;40.75
37852;BME280;23691;52.486;4.650;2023-06-22T12:17:38;101785.25;;;31.11;40.96
37852;BME280;23691;52.486;4.650;2023-06-22T12:20:06;101784.16;;;31.02;41.75
37852;BME280;23691;52.486;4.650;2023-06-22T12:22:32;101776.16;;;30.95;41.62
37852;BME280;23691;52.486;4.650;2023-06-22T12:24:58;101778.13;;;30.85;41.96
37852;BME280;23691;52.486;4.650;2023-06-22T12:27:25;101778.63;;;30.71;42.39
37852;BME280;23691;52.486;4.650;2023-06-22T12:29:50;101777.81;;;30.60;42.08
37852;BME280;23691;52.486;4.650;2023-06-22T12:32:16;101781.41;;;30.46;42.28
37852;BME280;23691;52.486;4.650;2023-06-22T12:34:43;101778.91;;;30.34;42.70
37852;BME280;23691;52.486;4.650;2023-06-22T12:37:09;101788.53;;;30.21;43.17
37852;BME280;23691;52.486;4.650;2023-06-22T12:39:34;101772.81;;;30.11;43.31
37852;BME280;23691;52.486;4.650;2023-06-22T12:42:00;101774.44;;;29.97;43.24
37852;BME280;23691;52.486;4.650;2023-06-22T12:44:25;101778.00;;;29.87;43.97
37852;BME280;23691;52.486;4.650;2023-06-22T12:46:51;101773.00;;;29.79;43.56
37852;BME280;23691;52.486;4.650;2023-06-22T12:49:16;101768.84;;;29.71;44.40
37852;BME280;23691;52.486;4.650;2023-06-22T12:51:43;101768.56;;;29.68;44.65
37852;BME280;23691;52.486;4.650;2023-06-22T12:54:10;101760.78;;;29.60;44.30